Time;durP1;ratioP1;P1;durP2;ratioP2;P2;SDS_P1;SDS_P2;PMS_P1;PMS_P2;Temp;Humidity;BMP_temperature;BMP_pressure;BME280_temperature;BME280_humidity;BME280_pressure;Samples;Min_cycle;Max_cycle;Signal;HPM_P1;HPM_P2
2023/09/20 00:01:56;;;;;;;;;;;14.10;99.90;;;;;;7298920;19;19946;-70
2023/09/20 00:04:29;;;;;;;;;;;14.10;99.90;;;;;;7283572;19;21092;-70
2023/09/20 00:07:02;;;;;;;;;;;14.00;99.90;;;;;;7216894;19;20364;-72
2023/09/20 00:09:35;;;;;;;;;;;14.10;99.90;;;;;;7218532;19;19923;-71
2023/09/20 00:12:08;;;;;;;;;;;14.10;99.90;;;;;;7556218;19;19950;-71
2023/09/20 00:14:40;;;;;;;;;;;14.00;99.90;;;;;;7583344;19;20248;-72
2023/09/20 00:17:12;;;;;;;;;;;14.00;99.90;;;;;;7590805;19;20328;-71
2023/09/20 00:19:45;;;;;;;;;;;13.90;99.90;;;;;;7379164;19;20433;-72
2023/09/20 00:22:17;;;;;;;;;;;13.80;99.90;;;;;;7287762;19;19927;-71
2023/09/20 00:24:50;;;;;;;;;;;13.90;99.90;;;;;;7290394;19;19932;-70
2023/09/20 00:27:23;;;;;;;;;;;13.90;99.90;;;;;;7284969;19;21497;-71
2023/09/20 00:29:56;;;;;;;;;;;13.90;99.90;;;;;;7287898;19;20824;-70
2023/09/20 00:32:30;;;;;;;;;;;13.80;99.90;;;;;;7284522;19;19922;-72
2023/09/20 00:35:03;;;;;;;;;;;13.80;99.90;;;;;;7278372;19;19926;-71
2023/09/20 00:37:35;;;;;;;;;;;13.70;99.90;;;;;;7301248;19;21160;-71
2023/09/20 00:40:15;;;;;;;;;;;13.60;99.90;;;;;;7289786;19;21184;-71
2023/09/20 00:42:49;;;;;;;;;;;13.70;99.90;;;;;;7300392;19;20532;-72
2023/09/20 00:45:22;;;;;;;;;;;13.60;99.90;;;;;;7317587;19;20647;-71
2023/09/20 00:47:57;;;;;;;;;;;13.70;99.90;;;;;;7359763;19;20089;-72
2023/09/20 00:50:34;;;;;;;;;;;13.60;99.90;;;;;;7279726;19;19929;-71
2023/09/20 00:53:07;;;;;;;;;;;13.60;99.90;;;;;;7310148;19;20451;-71
2023/09/20 00:55:42;;;;;;;;;;;13.60;99.90;;;;;;7328129;19;20642;-71
2023/09/20 00:58:15;;;;;;;;;;;13.60;99.90;;;;;;7316867;19;20729;-69
2023/09/20 01:00:51;;;;;;;;;;;13.60;99.90;;;;;;7334792;19;21039;-71
2023/09/20 01:03:26;;;;;;;;;;;13.70;99.90;;;;;;7365159;19;19919;-71
2023/09/20 01:06:01;;;;;;;;;;;13.60;99.90;;;;;;7320346;19;19930;-72
2023/09/20 01:08:33;;;;;;;;;;;13.70;99.90;;;;;;7287707;19;21124;-69
2023/09/20 01:11:07;;;;;;;;;;;13.70;99.90;;;;;;7342234;19;19918;-72
2023/09/20 01:13:40;;;;;;;;;;;13.70;99.90;;;;;;7376570;19;19923;-72
2023/09/20 01:16:15;;;;;;;;;;;13.70;99.90;;;;;;7351543;19;19926;-71
2023/09/20 01:18:48;;;;;;;;;;;13.70;99.90;;;;;;7344326;19;20600;-71
2023/09/20 01:21:21;;;;;;;;;;;13.70;99.90;;;;;;7347702;19;19938;-71
2023/09/20 01:23:54;;;;;;;;;;;13.80;99.90;;;;;;7354805;19;19915;-72
2023/09/20 01:26:27;;;;;;;;;;;13.80;99.90;;;;;;7341852;19;21103;-71
2023/09/20 01:29:00;;;;;;;;;;;13.80;99.90;;;;;;7326640;19;20552;-71
2023/09/20 01:31:36;;;;;;;;;;;13.80;99.90;;;;;;7312601;19;19929;-72
2023/09/20 01:34:09;;;;;;;;;;;13.80;99.90;;;;;;7333955;19;20549;-70
2023/09/20 01:36:42;;;;;;;;;;;13.80;99.90;;;;;;7274146;19;19937;-71
2023/09/20 01:39:16;;;;;;;;;;;13.80;99.90;;;;;;7289334;19;19933;-71
2023/09/20 01:41:49;;;;;;;;;;;13.80;99.90;;;;;;7271854;19;20152;-71
2023/09/20 01:44:22;;;;;;;;;;;13.80;99.90;;;;;;7263703;19;19923;-71
2023/09/20 01:46:54;;;;;;;;;;;13.80;99.90;;;;;;7327453;19;20239;-72
2023/09/20 01:49:27;;;;;;;;;;;13.80;99.90;;;;;;7312784;19;20113;-71
2023/09/20 01:52:00;;;;;;;;;;;13.80;99.90;;;;;;7266390;19;20717;-70
2023/09/20 01:54:33;;;;;;;;;;;13.80;99.90;;;;;;7289009;19;20270;-70
2023/09/20 01:57:07;;;;;;;;;;;13.80;99.90;;;;;;7310708;19;19919;-71
2023/09/20 01:59:40;;;;;;;;;;;13.80;99.90;;;;;;7240623;19;19918;-71
2023/09/20 02:02:13;;;;;;;;;;;13.80;99.90;;;;;;7241099;19;19918;-71
2023/09/20 02:04:47;;;;;;;;;;;13.70;99.90;;;;;;7258263;19;19936;-71
2023/09/20 02:07:22;;;;;;;;;;;13.60;99.90;;;;;;7563499;19;19927;-72
2023/09/20 02:09:54;;;;;;;;;;;13.60;99.90;;;;;;7550002;19;19918;-71
2023/09/20 02:12:26;;;;;;;;;;;13.60;99.90;;;;;;7555488;19;19986;-71
2023/09/20 02:14:59;;;;;;;;;;;13.60;99.90;;;;;;7537088;19;19949;-71
2023/09/20 02:17:31;;;;;;;;;;;13.60;99.90;;;;;;7551431;19;20104;-71
2023/09/20 02:20:10;;;;;;;;;;;13.70;99.90;;;;;;7547105;19;19920;-71
2023/09/20 02:22:42;;;;;;;;;;;13.60;99.90;;;;;;7543822;19;19994;-71
2023/09/20 02:25:20;;;;;;;;;;;13.60;99.90;;;;;;7549075;19;20892;-72
2023/09/20 02:27:57;;;;;;;;;;;13.60;99.90;;;;;;7538662;19;21125;-71
2023/09/20 02:30:32;;;;;;;;;;;13.60;99.90;;;;;;7535680;19;20875;-71
2023/09/20 02:33:05;;;;;;;;;;;13.50;99.90;;;;;;7462777;19;21319;-71
2023/09/20 02:35:39;;;;;;;;;;;13.50;99.90;;;;;;7266084;19;20580;-70
2023/09/20 02:38:12;;;;;;;;;;;13.50;99.90;;;;;;7238811;19;19922;-71
2023/09/20 02:40:46;;;;;;;;;;;13.40;99.90;;;;;;7257709;19;20509;-71
2023/09/20 02:43:20;;;;;;;;;;;13.40;99.90;;;;;;7262242;19;19957;-70
2023/09/20 02:45:54;;;;;;;;;;;13.40;99.90;;;;;;7234562;19;21122;-71
2023/09/20 02:48:28;;;;;;;;;;;13.30;99.90;;;;;;7231908;19;21188;-71
2023/09/20 02:51:00;;;;;;;;;;;13.30;99.90;;;;;;7234208;19;19958;-71
2023/09/20 02:53:35;;;;;;;;;;;13.30;99.90;;;;;;7234226;19;19922;-71
2023/09/20 02:56:08;;;;;;;;;;;13.30;99.90;;;;;;7218451;19;19926;-72
2023/09/20 02:58:41;;;;;;;;;;;13.20;99.90;;;;;;7190076;19;20002;-71
2023/09/20 03:01:15;;;;;;;;;;;13.20;99.90;;;;;;7153225;19;20026;-70
2023/09/20 03:03:48;;;;;;;;;;;13.20;99.90;;;;;;7203975;19;21185;-71
2023/09/20 03:06:20;;;;;;;;;;;13.10;99.90;;;;;;7200563;19;19922;-73
2023/09/20 03:08:54;;;;;;;;;;;13.20;99.90;;;;;;7205856;19;21602;-72
2023/09/20 03:11:28;;;;;;;;;;;13.20;99.90;;;;;;7202593;19;19943;-71
2023/09/20 03:14:08;;;;;;;;;;;13.10;99.90;;;;;;7204478;19;20776;-71
2023/09/20 03:16:44;;;;;;;;;;;13.00;99.90;;;;;;7200430;19;19919;-70
2023/09/20 03:19:20;;;;;;;;;;;13.00;99.90;;;;;;7198372;19;19953;-71
2023/09/20 03:21:54;;;;;;;;;;;13.10;99.90;;;;;;7168183;19;19919;-71
2023/09/20 03:24:27;;;;;;;;;;;13.10;99.90;;;;;;7172759;19;21352;-70
2023/09/20 03:27:01;;;;;;;;;;;13.00;99.90;;;;;;7138030;19;20273;-70
2023/09/20 03:29:35;;;;;;;;;;;13.00;99.90;;;;;;7143607;19;20303;-68
2023/09/20 03:32:09;;;;;;;;;;;12.90;99.90;;;;;;7146173;19;20263;-70
2023/09/20 03:34:42;;;;;;;;;;;12.90;99.90;;;;;;7139095;19;19918;-70
2023/09/20 03:37:15;;;;;;;;;;;12.90;99.90;;;;;;7124546;19;20439;-70
2023/09/20 03:39:50;;;;;;;;;;;12.90;99.90;;;;;;7103142;19;19926;-71
2023/09/20 03:42:24;;;;;;;;;;;12.90;99.90;;;;;;7116043;19;19922;-71
2023/09/20 03:44:56;;;;;;;;;;;13.00;99.90;;;;;;7076103;19;19934;-73
2023/09/20 03:47:30;;;;;;;;;;;13.00;99.90;;;;;;7069835;19;19930;-70
2023/09/20 03:50:04;;;;;;;;;;;13.00;99.90;;;;;;7093474;19;21172;-70
2023/09/20 03:52:40;;;;;;;;;;;12.90;99.90;;;;;;7101277;19;20987;-72
2023/09/20 03:55:13;;;;;;;;;;;12.90;99.90;;;;;;7087120;19;19930;-72
2023/09/20 03:57:46;;;;;;;;;;;12.80;99.90;;;;;;7087711;19;19933;-70
2023/09/20 04:00:27;;;;;;;;;;;12.80;99.90;;;;;;7079531;19;20368;-71
2023/09/20 04:03:08;;;;;;;;;;;12.80;99.90;;;;;;7048011;19;19919;-72
2023/09/20 04:05:43;;;;;;;;;;;12.80;99.90;;;;;;7046318;19;21384;-70
2023/09/20 04:08:20;;;;;;;;;;;12.80;99.90;;;;;;7564133;19;19937;-73
2023/09/20 04:10:53;;;;;;;;;;;12.80;99.90;;;;;;7559407;19;19918;-73
2023/09/20 04:13:25;;;;;;;;;;;13.00;99.90;;;;;;7578521;19;19914;-73
2023/09/20 04:15:57;;;;;;;;;;;12.90;99.90;;;;;;7565546;19;19922;-76
2023/09/20 04:18:30;;;;;;;;;;;12.90;99.90;;;;;;7574791;19;19926;-73
2023/09/20 04:21:03;;;;;;;;;;;12.80;99.90;;;;;;7563036;19;19924;-73
2023/09/20 04:23:35;;;;;;;;;;;12.80;99.90;;;;;;7573764;19;19919;-72
2023/09/20 04:26:07;;;;;;;;;;;12.70;99.90;;;;;;7565701;19;19965;-73
2023/09/20 04:28:40;;;;;;;;;;;12.70;99.90;;;;;;7583589;19;21660;-73
2023/09/20 04:31:13;;;;;;;;;;;12.70;99.90;;;;;;7577126;19;19934;-72
2023/09/20 04:33:46;;;;;;;;;;;12.80;99.90;;;;;;7586748;19;19931;-73
2023/09/20 04:36:18;;;;;;;;;;;12.70;99.90;;;;;;7579042;19;19974;-73
2023/09/20 04:38:51;;;;;;;;;;;12.70;99.90;;;;;;7592030;19;19953;-73
2023/09/20 04:41:23;;;;;;;;;;;12.70;99.90;;;;;;7579099;19;19922;-73
2023/09/20 04:43:55;;;;;;;;;;;12.70;99.90;;;;;;7527859;19;19922;-71
2023/09/20 04:46:28;;;;;;;;;;;12.70;99.90;;;;;;6849451;19;21154;-72
2023/09/20 04:49:02;;;;;;;;;;;12.70;99.90;;;;;;6856002;19;21745;-70
2023/09/20 04:51:35;;;;;;;;;;;12.50;99.90;;;;;;6848836;19;20689;-71
2023/09/20 04:54:08;;;;;;;;;;;12.50;99.90;;;;;;6854753;19;20754;-70
2023/09/20 04:56:47;;;;;;;;;;;12.50;99.90;;;;;;6853217;19;20701;-70
2023/09/20 04:59:20;;;;;;;;;;;12.50;99.90;;;;;;6857164;19;21651;-70
2023/09/20 05:01:54;;;;;;;;;;;12.50;99.90;;;;;;6856985;19;20271;-71
2023/09/20 05:04:27;;;;;;;;;;;12.50;99.90;;;;;;6862290;19;20232;-70
2023/09/20 05:07:05;;;;;;;;;;;12.50;99.90;;;;;;6839087;19;21017;-70
2023/09/20 05:09:41;;;;;;;;;;;12.50;99.90;;;;;;6852346;19;21428;-71
2023/09/20 05:12:14;;;;;;;;;;;12.60;99.90;;;;;;6853551;19;20294;-72
2023/09/20 05:14:49;;;;;;;;;;;12.60;99.90;;;;;;6852428;19;21093;-71
2023/09/20 05:17:24;;;;;;;;;;;12.70;99.90;;;;;;6855298;19;20330;-71
2023/09/20 05:19:58;;;;;;;;;;;12.80;99.90;;;;;;6853005;19;21218;-71
2023/09/20 05:22:31;;;;;;;;;;;12.80;99.90;;;;;;6851931;19;20441;-72
2023/09/20 05:25:04;;;;;;;;;;;12.90;99.90;;;;;;6855724;19;21076;-71
2023/09/20 05:27:37;;;;;;;;;;;13.00;99.90;;;;;;6856796;19;20830;-70
2023/09/20 05:30:11;;;;;;;;;;;13.00;99.90;;;;;;6853166;19;21483;-70
2023/09/20 05:32:43;;;;;;;;;;;13.00;99.90;;;;;;6850859;19;19934;-71
2023/09/20 05:35:17;;;;;;;;;;;13.00;99.90;;;;;;6861698;19;19933;-70
2023/09/20 05:37:50;;;;;;;;;;;12.80;99.90;;;;;;6856794;19;20355;-70
2023/09/20 05:40:22;;;;;;;;;;;12.90;99.90;;;;;;6844133;19;20884;-71
2023/09/20 05:42:55;;;;;;;;;;;12.80;99.90;;;;;;6858920;19;20586;-70
2023/09/20 05:45:27;;;;;;;;;;;12.70;99.90;;;;;;6846955;19;20793;-72
2023/09/20 05:48:03;;;;;;;;;;;12.70;99.90;;;;;;6842707;19;21336;-70
2023/09/20 05:50:36;;;;;;;;;;;12.70;99.90;;;;;;6844295;19;19918;-73
2023/09/20 05:53:12;;;;;;;;;;;12.70;99.90;;;;;;6848591;19;20731;-71
2023/09/20 05:55:46;;;;;;;;;;;12.80;99.90;;;;;;6839270;19;20756;-71
2023/09/20 05:58:18;;;;;;;;;;;12.90;99.90;;;;;;6850148;19;19945;-73
2023/09/20 06:00:52;;;;;;;;;;;13.00;99.90;;;;;;6951207;19;20473;-73
2023/09/20 06:03:24;;;;;;;;;;;13.10;99.90;;;;;;7587851;19;19922;-73
2023/09/20 06:05:57;;;;;;;;;;;13.10;99.90;;;;;;7588283;19;20740;-74
2023/09/20 06:08:29;;;;;;;;;;;13.10;99.90;;;;;;7597155;19;19927;-73
2023/09/20 06:11:04;;;;;;;;;;;13.20;99.90;;;;;;7597441;19;19919;-74
2023/09/20 06:13:38;;;;;;;;;;;13.20;99.90;;;;;;7591272;19;19940;-71
2023/09/20 06:16:10;;;;;;;;;;;13.30;99.90;;;;;;7590631;19;19925;-72
2023/09/20 06:18:43;;;;;;;;;;;13.40;99.90;;;;;;7588076;19;19929;-72
2023/09/20 06:21:19;;;;;;;;;;;13.40;99.90;;;;;;7591783;19;19934;-72
2023/09/20 06:23:51;;;;;;;;;;;13.70;99.90;;;;;;7595729;19;19926;-71
2023/09/20 06:26:24;;;;;;;;;;;13.80;99.90;;;;;;7592792;19;19914;-72
2023/09/20 06:28:56;;;;;;;;;;;13.90;99.90;;;;;;7590623;19;19926;-72
2023/09/20 06:31:28;;;;;;;;;;;14.00;99.90;;;;;;7594602;19;21450;-72
2023/09/20 06:34:00;;;;;;;;;;;14.10;99.90;;;;;;7599025;19;19994;-72
2023/09/20 06:36:35;;;;;;;;;;;14.10;99.90;;;;;;7593397;19;19918;-71
2023/09/20 06:39:08;;;;;;;;;;;14.20;99.90;;;;;;7601180;19;19922;-71
2023/09/20 06:41:42;;;;;;;;;;;14.40;99.90;;;;;;7597922;19;19937;-72
2023/09/20 06:44:14;;;;;;;;;;;14.60;99.90;;;;;;7597094;19;19927;-71
2023/09/20 06:46:46;;;;;;;;;;;14.80;99.90;;;;;;7594319;19;19911;-71
2023/09/20 06:49:18;;;;;;;;;;;14.90;99.90;;;;;;7590967;19;19960;-71
2023/09/20 06:51:51;;;;;;;;;;;15.10;99.90;;;;;;7593720;19;20987;-71
2023/09/20 06:54:23;;;;;;;;;;;15.20;99.90;;;;;;7588136;19;19927;-72
2023/09/20 06:57:02;;;;;;;;;;;15.30;99.90;;;;;;7592125;19;19927;-74
2023/09/20 06:59:37;;;;;;;;;;;15.40;99.90;;;;;;7592762;19;20675;-71
2023/09/20 07:02:11;;;;;;;;;;;15.60;99.90;;;;;;7592772;19;20037;-71
2023/09/20 07:04:44;;;;;;;;;;;15.70;99.90;;;;;;7586609;19;19922;-71
2023/09/20 07:07:18;;;;;;;;;;;15.80;99.90;;;;;;7590636;19;19919;-71
2023/09/20 07:09:50;;;;;;;;;;;16.00;99.90;;;;;;7591653;19;19926;-71
2023/09/20 07:12:23;;;;;;;;;;;16.00;99.90;;;;;;7587423;19;20826;-71
2023/09/20 07:14:55;;;;;;;;;;;16.10;99.90;;;;;;7592956;19;19922;-72
2023/09/20 07:17:27;;;;;;;;;;;16.10;99.90;;;;;;7587230;19;20498;-71
2023/09/20 07:19:59;;;;;;;;;;;16.20;99.90;;;;;;7591971;19;19933;-72
2023/09/20 07:22:38;;;;;;;;;;;16.30;99.90;;;;;;7593177;19;19918;-71
2023/09/20 07:25:19;;;;;;;;;;;16.40;99.90;;;;;;7587831;19;21198;-72
2023/09/20 07:27:51;;;;;;;;;;;16.50;99.90;;;;;;7596252;19;20613;-72
2023/09/20 07:30:23;;;;;;;;;;;16.60;99.90;;;;;;7588867;19;20348;-72
2023/09/20 07:32:55;;;;;;;;;;;16.90;99.90;;;;;;7592961;19;19919;-71
2023/09/20 07:35:48;;;;;;;;;;;17.00;99.90;;;;;;7587075;19;19937;-72
2023/09/20 07:38:29;;;;;;;;;;;17.40;99.90;;;;;;7591757;19;19925;-72
2023/09/20 07:41:17;;;;;;;;;;;17.50;99.90;;;;;;7596526;19;21050;-72
2023/09/20 07:43:51;;;;;;;;;;;17.70;99.90;;;;;;7592563;19;19915;-72
2023/09/20 07:46:23;;;;;;;;;;;17.90;99.90;;;;;;7592186;19;19978;-73
2023/09/20 07:48:56;;;;;;;;;;;18.00;99.90;;;;;;7601177;19;19938;-72
2023/09/20 07:51:29;;;;;;;;;;;18.10;99.90;;;;;;7592987;19;19914;-72
2023/09/20 07:54:02;;;;;;;;;;;18.20;99.90;;;;;;7599964;19;19948;-72
2023/09/20 07:56:34;;;;;;;;;;;18.40;99.90;;;;;;7598460;19;20793;-72
2023/09/20 07:59:07;;;;;;;;;;;18.40;99.90;;;;;;7598761;19;19956;-72
2023/09/20 08:01:42;;;;;;;;;;;18.40;99.90;;;;;;7600606;19;19923;-72
2023/09/20 08:04:17;;;;;;;;;;;18.50;99.90;;;;;;7602686;19;20657;-72
2023/09/20 08:06:50;;;;;;;;;;;18.60;99.90;;;;;;7612769;19;19949;-73
2023/09/20 08:09:23;;;;;;;;;;;18.70;99.90;;;;;;7604932;19;19922;-72
2023/09/20 08:11:55;;;;;;;;;;;18.70;99.90;;;;;;7608574;19;19950;-72
2023/09/20 08:14:27;;;;;;;;;;;18.80;99.90;;;;;;7601446;19;19923;-73
2023/09/20 08:19:50;;;;;;;;;;;18.90;99.90;;;;;;7602901;19;19938;-72
2023/09/20 08:22:22;;;;;;;;;;;18.90;99.90;;;;;;7603882;19;20027;-71
2023/09/20 09:02:07;;;;;;;;;;;19.80;99.90;;;;;;6864716;19;21099;-71
2023/09/20 09:04:49;;;;;;;;;;;19.80;99.90;;;;;;6851606;19;21241;-71
2023/09/20 09:07:25;;;;;;;;;;;19.90;99.90;;;;;;6851175;19;21295;-72
2023/09/20 09:09:58;;;;;;;;;;;20.00;99.90;;;;;;6849373;19;21127;-71
2023/09/20 09:12:30;;;;;;;;;;;20.00;99.90;;;;;;6852073;19;21087;-72
2023/09/20 09:15:03;;;;;;;;;;;20.10;99.90;;;;;;6850865;19;19926;-70
2023/09/20 09:17:40;;;;;;;;;;;20.10;99.90;;;;;;6862320;19;20035;-70
2023/09/20 09:20:13;;;;;;;;;;;20.20;99.90;;;;;;6856973;19;19919;-71
2023/09/20 09:22:47;;;;;;;;;;;20.20;99.90;;;;;;6862799;19;20986;-71
2023/09/20 09:25:24;;;;;;;;;;;20.30;99.90;;;;;;6844898;19;20916;-71
2023/09/20 09:27:58;;;;;;;;;;;20.40;99.90;;;;;;6854567;19;19921;-70
2023/09/20 09:30:31;;;;;;;;;;;20.40;99.90;;;;;;6856472;19;21230;-70
2023/09/20 09:33:04;;;;;;;;;;;20.40;99.90;;;;;;6855827;19;20588;-70
2023/09/20 09:35:37;;;;;;;;;;;20.50;99.90;;;;;;6841976;19;20941;-71
2023/09/20 09:38:21;;;;;;;;;;;20.50;99.90;;;;;;6845698;19;21505;-72
2023/09/20 09:40:56;;;;;;;;;;;20.50;99.90;;;;;;6854064;19;19922;-73
2023/09/20 09:43:29;;;;;;;;;;;20.70;99.90;;;;;;6852411;19;21134;-73
2023/09/20 09:46:08;;;;;;;;;;;20.70;99.90;;;;;;6848021;19;22485;-72
2023/09/20 09:48:42;;;;;;;;;;;20.70;99.90;;;;;;6860598;19;21372;-73
2023/09/20 09:51:16;;;;;;;;;;;20.70;99.90;;;;;;6854953;19;19929;-70
2023/09/20 09:53:49;;;;;;;;;;;20.70;99.90;;;;;;6854441;19;20976;-70
2023/09/20 09:56:23;;;;;;;;;;;20.80;99.90;;;;;;6856849;19;21541;-71
2023/09/20 09:58:55;;;;;;;;;;;20.80;99.90;;;;;;7568090;19;19922;-71
2023/09/20 10:01:28;;;;;;;;;;;20.80;99.90;;;;;;7599139;19;20412;-73
2023/09/20 10:04:05;;;;;;;;;;;21.00;99.90;;;;;;7601386;19;20405;-71
2023/09/20 10:06:48;;;;;;;;;;;21.10;99.90;;;;;;7600032;19;19919;-72
2023/09/20 10:09:24;;;;;;;;;;;21.10;99.90;;;;;;7591158;19;20420;-74
2023/09/20 10:11:56;;;;;;;;;;;21.10;99.90;;;;;;7601468;19;19937;-71
2023/09/20 10:14:29;;;;;;;;;;;21.10;99.90;;;;;;7603718;19;19926;-72
2023/09/20 10:17:02;;;;;;;;;;;21.10;99.90;;;;;;7599725;19;21158;-72
2023/09/20 10:19:36;;;;;;;;;;;21.20;99.90;;;;;;7605074;19;20001;-73
2023/09/20 10:22:09;;;;;;;;;;;21.30;99.90;;;;;;7597166;19;19951;-71
2023/09/20 10:24:44;;;;;;;;;;;21.20;99.90;;;;;;7591556;19;19919;-73
2023/09/20 10:27:16;;;;;;;;;;;21.20;99.90;;;;;;7589387;19;19959;-71
2023/09/20 10:29:59;;;;;;;;;;;21.30;99.90;;;;;;7599076;19;19926;-71
2023/09/20 10:32:32;;;;;;;;;;;21.40;99.90;;;;;;7603313;19;19919;-74
2023/09/20 10:35:20;;;;;;;;;;;21.40;99.90;;;;;;7594995;19;19987;-72
2023/09/20 10:38:11;;;;;;;;;;;21.40;99.90;;;;;;7594159;19;19932;-71
2023/09/20 10:40:44;;;;;;;;;;;21.50;99.90;;;;;;7591837;19;19925;-70
2023/09/20 10:43:20;;;;;;;;;;;21.50;99.90;;;;;;7598979;19;19922;-72
2023/09/20 10:45:53;;;;;;;;;;;21.60;99.90;;;;;;7595448;19;19918;-71
2023/09/20 10:48:28;;;;;;;;;;;21.60;99.90;;;;;;7602569;19;19971;-71
2023/09/20 10:51:03;;;;;;;;;;;21.70;99.90;;;;;;7602258;19;19929;-72
2023/09/20 10:53:41;;;;;;;;;;;21.70;99.90;;;;;;7598329;19;20360;-72
2023/09/20 10:56:53;;;;;;;;;;;21.80;99.90;;;;;;7594722;19;19922;-71
2023/09/20 10:59:26;;;;;;;;;;;21.90;99.90;;;;;;7594461;19;19923;-71
2023/09/20 11:02:05;;;;;;;;;;;22.10;99.90;;;;;;7590486;19;19922;-72
2023/09/20 11:04:38;;;;;;;;;;;22.20;99.90;;;;;;7577608;19;19914;-72
2023/09/20 11:07:10;;;;;;;;;;;22.20;99.90;;;;;;7599253;19;19929;-71
2023/09/20 11:09:47;;;;;;;;;;;22.10;99.90;;;;;;7603100;19;20398;-74
2023/09/20 11:12:20;;;;;;;;;;;22.20;99.90;;;;;;7586914;19;20913;-71
2023/09/20 11:14:54;;;;;;;;;;;22.30;99.90;;;;;;7595754;19;19922;-70
2023/09/20 11:17:27;;;;;;;;;;;22.50;99.80;;;;;;7600535;19;19922;-72
2023/09/20 11:20:00;;;;;;;;;;;22.60;99.50;;;;;;7606305;19;19932;-71
2023/09/20 11:22:32;;;;;;;;;;;22.70;99.50;;;;;;7614206;19;19923;-72
2023/09/20 11:25:05;;;;;;;;;;;22.90;99.70;;;;;;7609199;19;19918;-71
2023/09/20 11:27:38;;;;;;;;;;;23.30;98.60;;;;;;7304226;19;19923;-70
2023/09/20 11:30:11;;;;;;;;;;;24.10;98.10;;;;;;7055797;19;19926;-70
2023/09/20 11:32:44;;;;;;;;;;;24.70;96.80;;;;;;7052748;19;20708;-70
2023/09/20 11:35:39;;;;;;;;;;;25.40;96.20;;;;;;7056706;19;20751;-70
2023/09/20 11:38:15;;;;;;;;;;;26.00;94.10;;;;;;7028089;19;20122;-71
2023/09/20 11:40:48;;;;;;;;;;;26.60;93.00;;;;;;7061804;19;20915;-68
2023/09/20 11:43:21;;;;;;;;;;;26.90;92.50;;;;;;7071160;19;20604;-70
2023/09/20 11:45:56;;;;;;;;;;;27.20;91.10;;;;;;7050380;19;20512;-71
2023/09/20 11:48:33;;;;;;;;;;;27.40;90.70;;;;;;7067340;19;21446;-70
2023/09/20 11:51:07;;;;;;;;;;;27.40;88.40;;;;;;7079238;19;20297;-71
2023/09/20 11:53:41;;;;;;;;;;;27.80;88.40;;;;;;7075162;19;19918;-70
2023/09/20 11:56:23;;;;;;;;;;;28.00;86.40;;;;;;7069494;19;21348;-70
2023/09/20 11:58:58;;;;;;;;;;;28.50;85.80;;;;;;7308194;19;19929;-70
2023/09/20 12:01:30;;;;;;;;;;;28.80;85.50;;;;;;7610700;19;19971;-70
2023/09/20 12:04:03;;;;;;;;;;;29.20;84.50;;;;;;7613903;19;19922;-72
2023/09/20 12:06:36;;;;;;;;;;;29.60;81.50;;;;;;7617245;19;19927;-71
2023/09/20 12:09:09;;;;;;;;;;;29.60;80.80;;;;;;7600831;19;20602;-71
2023/09/20 12:11:43;;;;;;;;;;;29.60;80.50;;;;;;7606683;19;19919;-70
2023/09/20 12:14:16;;;;;;;;;;;29.50;79.90;;;;;;7617293;19;19918;-72
2023/09/20 12:16:49;;;;;;;;;;;29.60;79.60;;;;;;7617837;19;19923;-73
2023/09/20 12:19:22;;;;;;;;;;;29.70;80.20;;;;;;7619213;19;20517;-72
2023/09/20 12:21:55;;;;;;;;;;;30.00;78.10;;;;;;7620898;19;19918;-73
2023/09/20 12:24:28;;;;;;;;;;;30.20;77.40;;;;;;7608882;19;19926;-73
2023/09/20 12:27:00;;;;;;;;;;;30.60;77.20;;;;;;7620524;19;19931;-72
2023/09/20 12:29:32;;;;;;;;;;;30.70;74.90;;;;;;7619945;19;20762;-70
2023/09/20 12:32:05;;;;;;;;;;;30.60;74.30;;;;;;7096218;19;20352;-70
2023/09/20 12:34:37;;;;;;;;;;;30.70;72.70;;;;;;7085732;19;20577;-69
2023/09/20 12:37:11;;;;;;;;;;;31.10;74.00;;;;;;7125684;19;20635;-69
2023/09/20 12:39:43;;;;;;;;;;;31.60;72.90;;;;;;7059240;19;19914;-70
2023/09/20 12:42:16;;;;;;;;;;;31.70;72.00;;;;;;7045347;19;19923;-70
2023/09/20 12:44:50;;;;;;;;;;;32.20;72.40;;;;;;7088458;19;19918;-73
2023/09/20 12:47:22;;;;;;;;;;;32.20;70.00;;;;;;7046338;19;20969;-71
2023/09/20 12:49:56;;;;;;;;;;;32.30;71.00;;;;;;7052410;19;19919;-71
2023/09/20 12:52:30;;;;;;;;;;;32.20;69.50;;;;;;7097005;19;20721;-69
2023/09/20 12:55:03;;;;;;;;;;;32.10;68.80;;;;;;7065461;19;19930;-69
2023/09/20 12:57:38;;;;;;;;;;;31.90;68.00;;;;;;7028499;19;21946;-70
2023/09/20 13:00:12;;;;;;;;;;;32.00;68.70;;;;;;7035673;19;20681;-70
2023/09/20 13:02:55;;;;;;;;;;;32.10;68.20;;;;;;7055138;19;20506;-70
2023/09/20 13:05:29;;;;;;;;;;;32.30;69.20;;;;;;7035443;19;20038;-70
2023/09/20 13:08:01;;;;;;;;;;;32.60;68.00;;;;;;7003560;19;20908;-68
2023/09/20 13:10:34;;;;;;;;;;;33.00;67.40;;;;;;7024356;19;20351;-70
2023/09/20 13:13:08;;;;;;;;;;;33.20;66.80;;;;;;7054810;19;21833;-70
2023/09/20 13:15:42;;;;;;;;;;;33.30;64.80;;;;;;6966791;19;19930;-70
2023/09/20 13:18:16;;;;;;;;;;;33.60;64.00;;;;;;7048098;19;19918;-70
2023/09/20 13:20:49;;;;;;;;;;;33.70;64.20;;;;;;7019060;19;20410;-70
2023/09/20 13:23:22;;;;;;;;;;;33.40;63.80;;;;;;6991899;19;20323;-70
2023/09/20 13:25:55;;;;;;;;;;;33.60;62.70;;;;;;7006186;19;20799;-71
2023/09/20 13:28:28;;;;;;;;;;;33.50;62.80;;;;;;7041321;19;19945;-70
2023/09/20 13:31:02;;;;;;;;;;;33.60;62.70;;;;;;7028483;19;19927;-70
2023/09/20 13:33:35;;;;;;;;;;;33.70;62.20;;;;;;7079401;19;20280;-71
2023/09/20 13:36:08;;;;;;;;;;;33.90;61.50;;;;;;7049491;19;20924;-70
2023/09/20 13:38:41;;;;;;;;;;;34.20;61.70;;;;;;6993606;19;19955;-70
2023/09/20 13:41:14;;;;;;;;;;;33.90;60.60;;;;;;7020504;19;20588;-70
2023/09/20 13:43:46;;;;;;;;;;;33.80;60.60;;;;;;7054012;19;20592;-70
2023/09/20 13:46:19;;;;;;;;;;;33.70;60.50;;;;;;7037005;19;19927;-70
2023/09/20 13:48:52;;;;;;;;;;;33.80;59.30;;;;;;7029794;19;20245;-70
2023/09/20 13:51:27;;;;;;;;;;;33.50;59.70;;;;;;7020603;19;20223;-70
2023/09/20 13:54:00;;;;;;;;;;;33.70;61.50;;;;;;7358992;19;19929;-70
2023/09/20 13:56:33;;;;;;;;;;;34.30;59.60;;;;;;7597618;19;19914;-70
2023/09/20 13:59:05;;;;;;;;;;;35.00;58.00;;;;;;7601582;19;19919;-70
2023/09/20 14:01:39;;;;;;;;;;;34.80;57.40;;;;;;7604318;19;19915;-71
2023/09/20 14:04:12;;;;;;;;;;;34.80;57.00;;;;;;7600269;19;19918;-71
2023/09/20 14:06:45;;;;;;;;;;;35.10;58.10;;;;;;7601297;19;19922;-70
2023/09/20 14:09:19;;;;;;;;;;;35.20;57.20;;;;;;7600647;19;19926;-71
2023/09/20 14:11:51;;;;;;;;;;;35.40;56.90;;;;;;7597800;19;19946;-70
2023/09/20 14:14:26;;;;;;;;;;;34.80;56.60;;;;;;7601658;19;20565;-71
2023/09/20 14:16:59;;;;;;;;;;;34.60;57.90;;;;;;7593040;19;19914;-70
2023/09/20 14:19:31;;;;;;;;;;;34.00;58.10;;;;;;7600266;19;19941;-70
2023/09/20 14:22:03;;;;;;;;;;;33.60;58.80;;;;;;7597947;19;19922;-70
2023/09/20 14:24:35;;;;;;;;;;;34.10;57.50;;;;;;7595402;19;19918;-73
2023/09/20 14:27:08;;;;;;;;;;;34.80;57.30;;;;;;7597201;19;19982;-70
2023/09/20 14:29:41;;;;;;;;;;;35.10;56.40;;;;;;7604041;19;19918;-71
2023/09/20 14:32:13;;;;;;;;;;;35.00;56.90;;;;;;7596015;19;19922;-71
2023/09/20 14:34:45;;;;;;;;;;;34.80;57.70;;;;;;7594767;19;19925;-71
2023/09/20 14:37:20;;;;;;;;;;;34.60;57.80;;;;;;7598270;19;19926;-71
2023/09/20 14:39:56;;;;;;;;;;;34.40;57.90;;;;;;7597030;19;20736;-71
2023/09/20 14:42:28;;;;;;;;;;;33.80;59.60;;;;;;7599737;19;20012;-71
2023/09/20 14:45:00;;;;;;;;;;;32.60;61.90;;;;;;7594043;19;19918;-70
2023/09/20 14:47:32;;;;;;;;;;;31.30;64.40;;;;;;7590744;19;19918;-71
2023/09/20 14:50:08;;;;;;;;;;;30.00;66.70;;;;;;7596290;19;19923;-71
2023/09/20 14:52:41;;;;;;;;;;;28.80;68.70;;;;;;7600912;19;19967;-70
2023/09/20 14:55:18;;;;;;;;;;;28.00;70.80;;;;;;7591742;19;19929;-71
2023/09/20 14:57:55;;;;;;;;;;;27.50;72.70;;;;;;7604533;19;20977;-71
2023/09/20 15:00:31;;;;;;;;;;;27.20;73.90;;;;;;7596103;19;19986;-71
2023/09/20 15:03:04;;;;;;;;;;;26.90;74.60;;;;;;7594955;19;20436;-72
2023/09/20 15:05:38;;;;;;;;;;;26.50;75.20;;;;;;7481506;19;19933;-71
2023/09/20 15:08:12;;;;;;;;;;;26.30;76.40;;;;;;6987812;19;20999;-70
2023/09/20 15:10:45;;;;;;;;;;;26.10;77.20;;;;;;6986417;19;20184;-70
2023/09/20 15:13:19;;;;;;;;;;;26.00;77.60;;;;;;6993274;19;19926;-69
2023/09/20 15:15:51;;;;;;;;;;;26.00;78.00;;;;;;7098790;19;19922;-69
2023/09/20 15:18:24;;;;;;;;;;;25.80;78.50;;;;;;7109702;19;19922;-70
2023/09/20 15:21:03;;;;;;;;;;;25.70;79.20;;;;;;7078996;19;20232;-71
2023/09/20 15:23:38;;;;;;;;;;;25.50;80.00;;;;;;7082692;19;19922;-71
2023/09/20 15:26:12;;;;;;;;;;;25.30;80.60;;;;;;7081958;19;19922;-71
2023/09/20 15:28:45;;;;;;;;;;;25.30;81.00;;;;;;7031248;19;19926;-69
2023/09/20 15:31:19;;;;;;;;;;;25.20;81.30;;;;;;6985950;19;19918;-71
2023/09/20 15:33:52;;;;;;;;;;;25.10;81.90;;;;;;6989588;19;19933;-70
2023/09/20 15:36:26;;;;;;;;;;;25.00;82.70;;;;;;7082429;19;19926;-69